Time;durP1;ratioP1;P1;durP2;ratioP2;P2;SDS_P1;SDS_P2;PMS_P1;PMS_P2;Temp;Humidity;BMP_temperature;BMP_pressure;BME280_temperature;BME280_humidity;BME280_pressure;Samples;Min_cycle;Max_cycle;Signal;HPM_P1;HPM_P2
2021/10/16 00:00:15;;;;;;;10.98;1.90;;;;;;;8.58;60.68;99985.84;5103468;28;20023;-68
2021/10/16 00:02:41;;;;;;;14.13;3.63;;;;;;;8.63;60.70;99976.34;5106196;28;20024;-67
2021/10/16 00:05:08;;;;;;;13.48;2.47;;;;;;;8.66;60.74;99978.03;5107216;28;20016;-68
2021/10/16 00:07:33;;;;;;;9.20;2.45;;;;;;;8.64;60.84;99972.03;5107026;28;20046;-68
2021/10/16 00:09:59;;;;;;;11.70;2.00;;;;;;;8.66;60.80;99960.78;5107101;28;20024;-69
2021/10/16 00:12:25;;;;;;;12.68;2.22;;;;;;;8.68;61.03;99963.34;5107088;28;20031;-69
2021/10/16 00:14:51;;;;;;;9.25;1.90;;;;;;;8.66;61.00;99962.50;5106958;28;20031;-69
2021/10/16 00:17:17;;;;;;;16.38;2.63;;;;;;;8.71;60.69;99955.56;5107178;28;20028;-69
2021/10/16 00:19:42;;;;;;;11.18;2.00;;;;;;;8.71;60.61;99954.69;5107109;28;20024;-69
2021/10/16 00:22:08;;;;;;;8.48;1.95;;;;;;;8.80;60.53;99952.06;5106846;28;20472;-69
2021/10/16 00:24:33;;;;;;;6.15;1.92;;;;;;;8.71;60.93;99945.22;5106976;28;20035;-69
2021/10/16 00:26:59;;;;;;;12.73;2.95;;;;;;;8.84;61.14;99958.03;5106830;28;20141;-69
2021/10/16 00:29:24;;;;;;;6.97;1.92;;;;;;;8.87;61.67;99958.03;5107083;28;20012;-69
2021/10/16 00:31:49;;;;;;;8.65;2.03;;;;;;;8.91;61.78;99955.38;5088451;28;20026;-69
2021/10/16 00:34:15;;;;;;;10.68;2.53;;;;;;;8.93;62.32;99955.38;5106705;28;20550;-69
2021/10/16 00:36:41;;;;;;;10.40;2.65;;;;;;;8.96;62.89;99965.69;5106919;28;20031;-69
2021/10/16 00:39:07;;;;;;;11.43;2.47;;;;;;;8.92;63.61;99953.66;5106362;28;20478;-68
2021/10/16 00:41:32;;;;;;;12.32;2.20;;;;;;;8.96;64.12;99963.13;5088394;28;20031;-69
2021/10/16 00:44:15;;;;;;;15.05;2.90;;;;;;;8.99;64.56;99967.44;5106547;28;20506;-67
2021/10/16 00:46:40;;;;;;;11.25;2.90;;;;;;;8.96;64.91;99970.03;5106626;28;20119;-68
2021/10/16 00:49:06;;;;;;;15.65;2.40;;;;;;;9.01;64.70;99976.03;5106355;28;20028;-68
2021/10/16 00:51:33;;;;;;;10.68;2.28;;;;;;;9.11;64.82;99975.06;5106073;28;20038;-69
2021/10/16 00:53:59;;;;;;;9.80;2.28;;;;;;;9.08;64.78;99972.50;5106354;28;20028;-69
2021/10/16 00:56:25;;;;;;;9.52;3.05;;;;;;;9.23;64.71;99968.06;5106236;28;20019;-68
2021/10/16 00:58:52;;;;;;;13.80;2.80;;;;;;;9.26;64.51;99966.31;5106314;28;20032;-68
2021/10/16 01:01:18;;;;;;;9.88;2.25;;;;;;;9.34;64.30;99976.59;5106542;28;20016;-68
2021/10/16 01:03:43;;;;;;;14.98;2.10;;;;;;;9.33;64.31;99941.19;5106113;28;20062;-69
2021/10/16 01:06:08;;;;;;;14.52;2.47;;;;;;;9.30;64.23;99970.56;5106306;28;20016;-69
2021/10/16 01:08:34;;;;;;;19.75;3.22;;;;;;;9.28;64.31;99963.72;5106004;28;20028;-68
2021/10/16 01:10:59;;;;;;;16.02;2.40;;;;;;;9.30;64.41;99959.34;5106260;28;20024;-70
2021/10/16 01:13:27;;;;;;;12.43;2.17;;;;;;;9.29;64.29;99955.91;5105625;28;20431;-68
2021/10/16 01:15:54;;;;;;;13.95;2.67;;;;;;;9.31;64.30;99961.09;5106324;28;20024;-68
2021/10/16 01:18:23;;;;;;;16.85;2.88;;;;;;;9.33;64.58;99955.88;5106365;28;20023;-68
2021/10/16 01:21:06;;;;;;;12.57;3.10;;;;;;;9.32;64.63;99946.38;5106044;28;20080;-67
2021/10/16 01:23:35;;;;;;;16.00;2.75;;;;;;;9.38;64.49;99954.94;5105452;28;20043;-68
2021/10/16 01:26:04;;;;;;;15.32;2.33;;;;;;;9.40;64.76;99948.03;5105658;28;20043;-68
2021/10/16 01:28:30;;;;;;;10.95;2.10;;;;;;;9.45;64.58;99949.69;5105573;28;20087;-68
2021/10/16 01:30:56;;;;;;;13.75;2.90;;;;;;;9.48;64.52;99957.44;5105458;28;20077;-68
2021/10/16 01:33:31;;;;;;;13.90;3.13;;;;;;;9.52;64.48;99954.78;5105236;28;20095;-68
2021/10/16 01:36:01;;;;;;;14.43;2.80;;;;;;;9.69;64.23;99958.06;5105370;28;20024;-68
2021/10/16 01:38:27;;;;;;;10.50;2.55;;;;;;;9.69;64.44;99937.31;5105625;28;20119;-68
2021/10/16 01:40:53;;;;;;;9.25;2.05;;;;;;;9.79;64.17;99954.50;5105516;28;20100;-69
2021/10/16 01:43:18;;;;;;;19.27;2.85;;;;;;;9.83;64.04;99950.97;5104935;28;20526;-68
2021/10/16 01:45:43;;;;;;;6.43;1.67;;;;;;;9.95;63.24;99951.69;5105408;28;20039;-68
2021/10/16 01:48:09;;;;;;;18.98;2.95;;;;;;;9.86;62.90;99944.88;5105297;28;20020;-68
2021/10/16 01:50:39;;;;;;;11.50;2.75;;;;;;;9.99;62.81;99950.78;5105215;28;20032;-68
2021/10/16 01:53:09;;;;;;;9.00;1.60;;;;;;;9.96;62.79;99948.22;5104991;28;20027;-69
2021/10/16 01:55:34;;;;;;;13.90;2.45;;;;;;;9.95;62.80;99959.47;5105389;28;20028;-68
2021/10/16 01:58:11;;;;;;;9.60;2.42;;;;;;;9.95;62.81;99931.81;5105139;28;20092;-68
2021/10/16 02:00:37;;;;;;;10.23;2.08;;;;;;;10.03;62.72;99944.69;5105051;28;20020;-68
2021/10/16 02:03:10;;;;;;;7.38;2.20;;;;;;;10.02;62.79;99938.63;5104880;28;20024;-68
2021/10/16 02:05:41;;;;;;;15.27;2.33;;;;;;;10.06;62.92;99936.84;5105035;28;20261;-68
2021/10/16 02:08:06;;;;;;;9.38;2.42;;;;;;;10.09;62.73;99926.44;5104788;28;20036;-68
2021/10/16 02:10:31;;;;;;;13.43;2.58;;;;;;;10.09;62.39;99926.44;5105064;28;20031;-68
2021/10/16 02:12:57;;;;;;;13.38;2.67;;;;;;;10.17;62.06;99926.31;5104679;28;20086;-68
2021/10/16 02:15:22;;;;;;;12.10;2.95;;;;;;;10.19;61.95;99931.50;5104739;28;20035;-68
2021/10/16 02:17:48;;;;;;;18.48;3.63;;;;;;;10.21;61.84;99927.97;5104616;28;20031;-68
2021/10/16 02:20:13;;;;;;;15.48;2.97;;;;;;;10.45;61.31;99930.25;5104367;28;20504;-68
2021/10/16 02:22:38;;;;;;;12.93;3.40;;;;;;;10.36;61.63;99926.03;5104437;28;20028;-68
2021/10/16 02:25:04;;;;;;;13.00;2.20;;;;;;;10.35;61.94;99912.19;5103599;28;20032;-68
2021/10/16 02:27:29;;;;;;;10.82;2.33;;;;;;;10.38;62.34;99912.16;5104551;28;20083;-68
2021/10/16 02:29:55;;;;;;;15.90;3.10;;;;;;;10.41;61.72;99927.69;5104572;28;20024;-68
2021/10/16 02:32:20;;;;;;;14.38;3.00;;;;;;;10.44;61.57;99912.94;5104246;28;20032;-69
2021/10/16 02:34:46;;;;;;;12.63;2.60;;;;;;;10.44;61.46;99920.72;5104349;28;20035;-69
2021/10/16 02:37:11;;;;;;;19.48;3.83;;;;;;;10.46;61.31;99921.56;5104626;28;20083;-68
2021/10/16 02:39:37;;;;;;;20.15;3.38;;;;;;;10.42;61.31;99910.38;5104150;28;20034;-68
2021/10/16 02:42:02;;;;;;;9.63;2.30;;;;;;;10.50;60.96;99923.25;5104246;28;20024;-67
2021/10/16 02:44:28;;;;;;;22.63;2.80;;;;;;;10.43;61.36;99924.22;5103988;28;20020;-68
2021/10/16 02:46:54;;;;;;;11.55;2.95;;;;;;;10.31;61.71;99917.47;5104112;28;20032;-68
2021/10/16 02:49:19;;;;;;;10.15;2.88;;;;;;;10.28;61.68;99906.28;5104019;28;20028;-68
2021/10/16 02:51:45;;;;;;;15.80;2.22;;;;;;;10.36;61.81;99911.34;5104184;28;20034;-69
2021/10/16 02:54:10;;;;;;;10.73;2.30;;;;;;;10.51;61.15;99912.84;5103829;28;20527;-69
2021/10/16 02:56:36;;;;;;;8.75;2.75;;;;;;;10.43;60.95;99911.25;5104157;28;20024;-69
2021/10/16 02:59:01;;;;;;;17.13;3.15;;;;;;;10.36;60.55;99913.06;5103797;28;20041;-67
2021/10/16 03:01:26;;;;;;;13.20;2.90;;;;;;;10.28;60.26;99901.09;5103916;28;20024;-68
2021/10/16 03:03:52;;;;;;;14.43;2.50;;;;;;;10.32;60.20;99912.25;5103805;28;20084;-68
2021/10/16 03:06:17;;;;;;;17.75;2.67;;;;;;;10.25;60.40;99924.47;5103794;28;20024;-68
2021/10/16 03:08:42;;;;;;;14.07;2.65;;;;;;;10.23;60.43;99908.06;5085625;28;20020;-68
2021/10/16 03:11:08;;;;;;;20.40;4.43;;;;;;;10.26;60.29;99902.84;5103865;28;20349;-68
2021/10/16 03:13:35;;;;;;;15.73;2.97;;;;;;;10.33;60.16;99906.22;5103802;28;20362;-69
2021/10/16 03:16:00;;;;;;;16.00;3.53;;;;;;;10.27;60.25;99920.09;5103852;28;20039;-68
2021/10/16 03:18:26;;;;;;;15.50;2.88;;;;;;;10.31;60.21;99907.09;5103666;28;20020;-68
2021/10/16 03:20:51;;;;;;;12.93;3.00;;;;;;;10.26;60.68;99905.44;5103591;28;20465;-67
2021/10/16 03:23:16;;;;;;;14.05;3.38;;;;;;;10.31;60.78;99910.56;5103170;28;20059;-68
2021/10/16 03:25:42;;;;;;;22.25;3.05;;;;;;;10.24;60.85;99908.94;5103812;28;20020;-68
2021/10/16 03:28:07;;;;;;;14.75;3.17;;;;;;;10.28;61.16;99901.09;5103436;28;20024;-68
2021/10/16 03:30:32;;;;;;;11.98;2.50;;;;;;;10.40;60.82;99894.84;5103464;28;20020;-68
2021/10/16 03:32:58;;;;;;;14.10;3.60;;;;;;;10.33;61.08;99911.41;5085476;28;20365;-67
2021/10/16 03:35:23;;;;;;;13.07;2.80;;;;;;;10.37;60.97;99892.28;5103359;28;20103;-67
2021/10/16 03:37:48;;;;;;;11.88;2.67;;;;;;;10.40;61.14;99907.81;5109186;28;20024;-68
2021/10/16 03:40:14;;;;;;;15.75;3.45;;;;;;;10.40;61.56;99913.00;5110157;28;20023;-68
2021/10/16 03:42:39;;;;;;;14.52;2.70;;;;;;;10.39;61.68;99890.53;5110278;28;20445;-69
2021/10/16 03:45:05;;;;;;;21.85;3.60;;;;;;;10.41;61.67;99904.31;5110160;28;20028;-68
2021/10/16 03:47:30;;;;;;;14.48;3.53;;;;;;;10.41;61.59;99896.53;5110310;28;20063;-70
2021/10/16 03:49:55;;;;;;;16.25;2.72;;;;;;;10.50;61.79;99900.78;5110323;28;20459;-69
2021/10/16 03:52:21;;;;;;;15.77;3.75;;;;;;;10.60;61.72;99906.66;5110374;28;20315;-68
2021/10/16 03:54:46;;;;;;;18.55;5.03;;;;;;;10.60;62.03;99909.28;5110187;28;20063;-69
2021/10/16 03:57:11;;;;;;;18.75;2.67;;;;;;;10.61;62.09;99904.91;5110114;28;20054;-70
2021/10/16 03:59:41;;;;;;;7.80;2.00;;;;;;;10.53;62.14;99902.44;5109964;28;20076;-69
2021/10/16 04:02:06;;;;;;;15.85;3.28;;;;;;;10.59;61.78;99914.47;5110334;28;20036;-70
2021/10/16 04:04:32;;;;;;;8.10;2.17;;;;;;;10.59;61.10;99904.94;5110003;28;20023;-69
2021/10/16 04:06:57;;;;;;;15.55;2.92;;;;;;;10.59;60.63;99898.91;5110496;28;20023;-69
2021/10/16 04:09:22;;;;;;;13.90;1.98;;;;;;;10.52;60.36;99903.34;5109800;28;20020;-69
2021/10/16 04:11:47;;;;;;;18.23;2.95;;;;;;;10.49;60.57;99912.03;5110039;28;20039;-70
2021/10/16 04:14:13;;;;;;;14.65;2.72;;;;;;;10.46;60.67;99888.75;5109763;28;20069;-70
2021/10/16 04:16:38;;;;;;;14.40;2.47;;;;;;;10.51;60.53;99912.03;5110024;28;20031;-69
2021/10/16 04:19:03;;;;;;;11.65;2.50;;;;;;;10.61;60.42;99903.19;5110011;28;20056;-69
2021/10/16 04:21:29;;;;;;;17.95;3.05;;;;;;;10.53;60.78;99915.44;5109903;28;20514;-70
2021/10/16 04:23:54;;;;;;;21.90;3.33;;;;;;;10.53;61.74;99905.03;5109692;28;20047;-70
2021/10/16 04:26:19;;;;;;;18.05;3.95;;;;;;;10.57;62.20;99909.31;5110307;28;20020;-70
2021/10/16 04:28:45;;;;;;;21.42;3.65;;;;;;;10.61;62.20;99912.69;5109787;28;20028;-70
2021/10/16 04:31:10;;;;;;;14.43;3.70;;;;;;;10.59;62.27;99888.53;5109841;28;20059;-70
2021/10/16 04:33:36;;;;;;;16.75;3.20;;;;;;;10.61;62.56;99910.09;5109800;28;20024;-70
2021/10/16 04:36:03;;;;;;;14.55;2.95;;;;;;;10.69;62.62;99900.47;5110083;28;20036;-69
2021/10/16 04:38:28;;;;;;;18.58;3.47;;;;;;;10.64;62.66;99890.16;5109886;28;20395;-69
2021/10/16 04:40:54;;;;;;;19.52;3.13;;;;;;;10.64;62.63;99908.31;5110021;28;20016;-70
2021/10/16 04:43:19;;;;;;;17.98;4.68;;;;;;;10.68;61.84;99890.09;5109477;28;20051;-70
2021/10/16 04:45:48;;;;;;;27.15;4.13;;;;;;;10.62;61.74;99904.88;5109827;28;20023;-70
2021/10/16 04:48:13;;;;;;;20.25;4.05;;;;;;;10.65;62.06;99909.19;5107590;28;20027;-70
2021/10/16 04:50:39;;;;;;;15.77;4.03;;;;;;;10.71;61.83;99908.22;5122070;28;20019;-69
2021/10/16 04:53:05;;;;;;;23.15;5.38;;;;;;;10.63;62.05;99905.75;5106373;28;20039;-69
2021/10/16 04:55:30;;;;;;;17.92;2.90;;;;;;;10.64;61.93;99910.91;5106379;28;20031;-69
2021/10/16 04:57:55;;;;;;;10.68;2.78;;;;;;;10.70;60.81;99894.41;5106611;28;20016;-69
2021/10/16 05:00:21;;;;;;;13.45;2.80;;;;;;;10.54;60.92;99911.97;5106282;28;20202;-69
2021/10/16 05:02:46;;;;;;;15.80;3.03;;;;;;;10.65;60.69;99884.06;5106541;28;20024;-69
2021/10/16 05:05:12;;;;;;;16.45;3.92;;;;;;;10.60;60.83;99895.41;5106198;28;20028;-68
2021/10/16 05:07:37;;;;;;;23.00;3.38;;;;;;;10.58;60.83;99885.06;5106205;28;20043;-68
2021/10/16 05:10:04;;;;;;;21.08;2.92;;;;;;;10.56;61.00;99886.81;5105759;28;20024;-67
2021/10/16 05:12:29;;;;;;;14.52;3.38;;;;;;;10.66;60.94;99891.00;5105996;28;20030;-67
2021/10/16 05:14:54;;;;;;;11.95;2.58;;;;;;;10.60;61.23;99901.47;5105762;28;20110;-67
2021/10/16 05:17:20;;;;;;;13.52;4.18;;;;;;;10.70;61.44;99899.59;5106039;28;20123;-67
2021/10/16 05:19:45;;;;;;;22.67;4.28;;;;;;;10.68;61.75;99885.78;5105881;28;20244;-68
2021/10/16 05:22:10;;;;;;;18.13;3.55;;;;;;;10.70;61.93;99896.13;5105702;28;20036;-67
2021/10/16 05:24:36;;;;;;;18.83;3.55;;;;;;;10.59;62.38;99884.16;5105724;28;20039;-68
2021/10/16 05:27:01;;;;;;;15.95;3.30;;;;;;;10.69;62.58;99897.03;5105989;28;20170;-69
2021/10/16 05:29:27;;;;;;;21.17;3.30;;;;;;;10.64;62.98;99879.75;5105620;28;20042;-68
2021/10/16 05:31:52;;;;;;;16.17;2.80;;;;;;;10.69;62.76;99886.63;5105737;28;20056;-69
2021/10/16 05:34:17;;;;;;;12.93;3.67;;;;;;;10.69;62.97;99892.66;5105525;28;20020;-69
2021/10/16 05:36:43;;;;;;;14.57;3.55;;;;;;;10.66;62.92;99890.13;5105852;28;20023;-69
2021/10/16 05:39:08;;;;;;;19.40;3.60;;;;;;;10.60;62.90;99901.47;5105400;28;20030;-69
2021/10/16 05:41:33;;;;;;;19.05;2.90;;;;;;;10.55;62.97;99898.09;5105538;28;20118;-69
2021/10/16 05:43:59;;;;;;;16.63;2.70;;;;;;;10.47;62.92;99898.22;5105214;28;20101;-68
2021/10/16 05:46:24;;;;;;;13.10;2.45;;;;;;;10.41;62.98;99895.69;5105405;28;20016;-69
2021/10/16 05:48:50;;;;;;;14.13;2.65;;;;;;;10.43;62.55;99893.06;5105399;28;20038;-68
2021/10/16 05:51:15;;;;;;;9.60;2.38;;;;;;;10.39;62.51;99895.72;5105137;28;20027;-68
2021/10/16 05:53:40;;;;;;;28.25;4.07;;;;;;;10.33;62.73;99898.41;5105205;28;20147;-68
2021/10/16 05:56:06;;;;;;;9.73;2.60;;;;;;;10.34;62.88;99900.13;5105194;28;20142;-68
2021/10/16 05:58:31;;;;;;;23.15;3.72;;;;;;;10.36;62.79;99897.50;5105176;28;20039;-69
2021/10/16 06:00:57;;;;;;;13.68;3.08;;;;;;;10.31;62.83;99892.38;5104948;28;20012;-71
2021/10/16 06:03:22;;;;;;;21.52;2.75;;;;;;;10.30;62.78;99893.28;5104775;28;20047;-68
2021/10/16 06:05:47;;;;;;;11.90;2.60;;;;;;;10.24;62.41;99893.38;5105184;28;20012;-68
2021/10/16 06:08:13;;;;;;;18.20;3.33;;;;;;;10.33;62.44;99901.00;5104724;28;20023;-68
2021/10/16 06:10:41;;;;;;;8.55;2.03;;;;;;;10.35;62.23;99901.81;5120363;28;20020;-68
2021/10/16 06:13:07;;;;;;;8.70;1.48;;;;;;;10.46;62.38;99906.00;5104867;28;20020;-68
2021/10/16 06:15:34;;;;;;;13.85;2.47;;;;;;;10.50;62.49;99913.75;5120140;28;20031;-68
2021/10/16 06:18:03;;;;;;;9.20;1.88;;;;;;;10.57;62.21;99903.25;5104589;28;20023;-68
2021/10/16 06:20:30;;;;;;;9.88;2.38;;;;;;;10.52;61.77;99913.72;5104742;28;20028;-68
2021/10/16 06:22:56;;;;;;;11.73;2.83;;;;;;;10.53;61.19;99903.31;5104304;28;20120;-69
2021/10/16 06:25:21;;;;;;;14.30;2.67;;;;;;;10.39;61.21;99887.94;5104436;28;20048;-68
2021/10/16 06:27:46;;;;;;;11.05;2.10;;;;;;;10.52;61.40;99908.53;5104489;28;20035;-70
2021/10/16 06:30:12;;;;;;;18.08;3.88;;;;;;;10.59;61.13;99920.50;5104371;28;20043;-68
2021/10/16 06:32:37;;;;;;;24.27;3.28;;;;;;;10.66;60.84;99909.16;5086079;28;20047;-68
2021/10/16 06:35:05;;;;;;;12.85;3.65;;;;;;;10.71;61.22;99892.63;5086058;28;20377;-69
2021/10/16 06:37:30;;;;;;;10.43;2.15;;;;;;;10.67;61.34;99923.00;5104277;28;20027;-68
2021/10/16 06:39:55;;;;;;;10.57;3.67;;;;;;;10.71;61.37;99929.00;5085706;28;20016;-70
2021/10/16 06:42:21;;;;;;;11.88;2.90;;;;;;;10.73;61.42;99932.41;5119929;28;20046;-68
2021/10/16 06:44:46;;;;;;;15.73;5.50;;;;;;;10.76;61.87;99933.25;5104082;28;20024;-68
2021/10/16 06:47:11;;;;;;;27.25;6.30;;;;;;;10.76;61.82;99924.59;5104098;28;20028;-68
2021/10/16 06:49:37;;;;;;;17.67;3.63;;;;;;;10.77;61.73;99932.34;5119775;28;20020;-67
2021/10/16 06:52:03;;;;;;;17.25;3.03;;;;;;;10.94;61.32;99925.16;5085669;28;20101;-67
2021/10/16 06:54:28;;;;;;;15.05;2.92;;;;;;;11.03;61.05;99906.78;5103547;28;20107;-68
2021/10/16 06:56:53;;;;;;;5.18;1.30;;;;;;;11.13;60.04;99920.47;5103975;28;20067;-70
2021/10/16 06:59:19;;;;;;;10.75;2.83;;;;;;;11.17;59.96;99926.47;5103750;28;20032;-69
2021/10/16 07:01:44;;;;;;;15.57;3.17;;;;;;;11.13;59.90;99918.72;5103785;28;20032;-68
2021/10/16 07:04:09;;;;;;;12.32;2.78;;;;;;;11.20;60.42;99914.28;5103625;28;20015;-69
2021/10/16 07:06:38;;;;;;;13.77;2.78;;;;;;;11.35;59.71;99892.34;5085618;28;20050;-69
2021/10/16 07:09:03;;;;;;;21.83;3.97;;;;;;;11.34;59.53;99927.00;5085350;28;20019;-69
2021/10/16 07:11:28;;;;;;;17.17;3.60;;;;;;;11.29;60.02;99923.66;5084811;28;20065;-69
2021/10/16 07:13:54;;;;;;;13.80;2.72;;;;;;;11.37;59.91;99906.13;5103576;28;20244;-68
2021/10/16 07:16:19;;;;;;;16.20;3.10;;;;;;;11.38;60.64;99926.06;5103628;28;20054;-67
2021/10/16 07:18:44;;;;;;;20.90;3.42;;;;;;;11.49;60.87;99906.78;5103651;28;20031;-68
2021/10/16 07:21:12;;;;;;;15.82;3.60;;;;;;;11.77;60.42;99922.66;5085300;28;20084;-68
2021/10/16 07:23:40;;;;;;;20.40;3.25;;;;;;;11.72;60.29;99906.31;5103085;28;20072;-68
2021/10/16 07:26:05;;;;;;;22.85;3.22;;;;;;;11.76;60.71;99915.75;5103680;28;20016;-67
2021/10/16 07:28:31;;;;;;;16.13;2.95;;;;;;;11.91;60.19;99921.53;5103457;28;20024;-70
2021/10/16 07:30:56;;;;;;;17.55;3.92;;;;;;;12.24;58.99;99950.31;5103603;28;20032;-66
2021/10/16 07:33:22;;;;;;;9.13;2.10;;;;;;;12.64;56.84;99934.63;5103632;28;20031;-69
2021/10/16 07:35:52;;;;;;;13.98;3.53;;;;;;;12.59;56.90;99947.75;5103275;28;20016;-69
2021/10/16 07:38:17;;;;;;;12.55;3.00;;;;;;;12.79;56.64;99946.44;5103250;28;20031;-69
2021/10/16 07:40:42;;;;;;;13.82;3.78;;;;;;;13.04;55.70;99961.44;5103486;28;20044;-67
2021/10/16 07:43:08;;;;;;;7.95;2.08;;;;;;;13.27;54.18;99937.34;5103486;28;20078;-69
2021/10/16 07:45:34;;;;;;;12.27;3.38;;;;;;;13.06;53.98;99936.19;5103252;28;20035;-69
2021/10/16 07:48:05;;;;;;;14.88;2.80;;;;;;;12.95;53.60;99959.06;5119250;28;20021;-69
2021/10/16 07:50:35;;;;;;;9.75;3.20;;;;;;;12.96;54.24;99971.19;5103588;28;20020;-71
2021/10/16 07:53:01;;;;;;;13.75;2.20;;;;;;;13.05;54.29;99977.94;5103617;28;20024;-71
2021/10/16 07:55:26;;;;;;;10.23;2.63;;;;;;;13.08;54.34;99970.03;5103405;28;20073;-71
2021/10/16 07:57:54;;;;;;;17.30;3.50;;;;;;;13.01;54.21;99969.31;5103682;28;20020;-69
2021/10/16 08:00:20;;;;;;;20.33;3.55;;;;;;;12.88;54.65;99982.66;5103649;28;20023;-70
2021/10/16 08:02:45;;;;;;;8.98;2.40;;;;;;;12.84;54.74;99974.97;5103660;28;20423;-69
2021/10/16 08:05:14;;;;;;;11.38;2.65;;;;;;;12.77;54.74;99977.72;5103104;28;20085;-70
2021/10/16 08:07:40;;;;;;;6.90;1.63;;;;;;;12.55;55.35;99966.09;5103158;28;20016;-70
2021/10/16 08:10:05;;;;;;;16.00;3.17;;;;;;;12.49;55.94;99978.38;5102661;28;20076;-70
2021/10/16 08:12:35;;;;;;;9.85;2.88;;;;;;;12.71;55.77;99974.41;5103131;28;20044;-71
2021/10/16 08:15:00;;;;;;;10.02;2.28;;;;;;;12.90;55.52;99959.19;5118708;28;20031;-70
2021/10/16 08:17:26;;;;;;;17.58;2.65;;;;;;;13.13;55.34;99984.63;5102964;28;20055;-68
2021/10/16 08:19:51;;;;;;;16.05;2.83;;;;;;;13.31;55.06;99992.88;5103133;28;20084;-69
2021/10/16 08:22:16;;;;;;;15.57;3.22;;;;;;;13.67;54.17;99983.28;5102612;28;20051;-69
2021/10/16 08:24:43;;;;;;;15.25;3.05;;;;;;;13.96;53.25;99984.19;5105466;28;20115;-68
2021/10/16 08:27:09;;;;;;;14.65;2.97;;;;;;;14.18;52.26;99981.78;5106604;28;20026;-69
2021/10/16 08:29:34;;;;;;;13.70;3.97;;;;;;;14.14;51.96;99972.34;5107027;28;20073;-68
2021/10/16 08:32:00;;;;;;;11.02;2.67;;;;;;;14.08;51.76;99978.59;5106672;28;20020;-68
2021/10/16 08:34:25;;;;;;;25.17;3.63;;;;;;;14.06;52.14;99980.41;5106462;28;20028;-68
2021/10/16 08:36:50;;;;;;;17.60;3.10;;;;;;;14.12;52.07;99977.59;5106430;28;20024;-69
2021/10/16 08:39:16;;;;;;;13.60;2.75;;;;;;;14.20;51.98;99963.47;5106322;28;20020;-71
2021/10/16 08:41:42;;;;;;;24.77;3.42;;;;;;;14.42;51.70;99979.31;5106283;28;20035;-73
2021/10/16 08:44:08;;;;;;;16.90;2.83;;;;;;;14.74;51.07;99963.53;5106467;28;20024;-72
2021/10/16 08:46:39;;;;;;;16.33;3.55;;;;;;;14.75;50.62;99965.22;5088017;28;20020;-73
2021/10/16 08:49:05;;;;;;;10.50;2.40;;;;;;;14.59;49.66;99952.66;5122281;28;20115;-72
2021/10/16 08:51:30;;;;;;;11.52;3.50;;;;;;;14.17;49.90;99972.22;5106282;28;20035;-72
2021/10/16 08:53:55;;;;;;;14.15;2.75;;;;;;;14.08;50.81;99990.78;5122069;28;20024;-71
2021/10/16 08:56:22;;;;;;;11.68;2.13;;;;;;;14.02;50.37;99962.25;5106571;28;20023;-72
2021/10/16 08:58:48;;;;;;;19.85;4.22;;;;;;;13.81;50.84;99978.53;5122250;28;20024;-73
2021/10/16 09:01:14;;;;;;;12.70;2.40;;;;;;;13.65;51.96;99979.84;5106311;28;20155;-72
2021/10/16 09:03:46;;;;;;;22.27;3.25;;;;;;;13.95;52.86;99985.06;5105990;28;20024;-70
2021/10/16 09:06:27;;;;;;;8.35;2.55;;;;;;;14.73;51.78;99975.72;5106086;28;20495;-73
2021/10/16 09:09:03;;;;;;;12.15;2.30;;;;;;;15.04;49.67;99967.78;5121560;28;20032;-68
2021/10/16 09:11:56;;;;;;;7.65;1.98;;;;;;;14.76;50.35;99974.75;5105969;28;20024;-68
2021/10/16 09:14:23;;;;;;;12.60;2.60;;;;;;;14.45;50.15;99981.84;5102342;28;20031;-67
2021/10/16 09:17:05;;;;;;;10.95;3.65;;;;;;;14.25;51.04;99985.06;5105663;28;20140;-68
2021/10/16 09:19:35;;;;;;;14.65;2.88;;;;;;;14.28;50.75;99990.19;5105911;28;20084;-68
2021/10/16 09:22:07;;;;;;;17.33;2.88;;;;;;;14.16;51.62;100006.22;5105592;28;20150;-67
2021/10/16 09:24:43;;;;;;;9.75;2.65;;;;;;;14.43;51.98;99993.22;5105474;28;20541;-69
2021/10/16 09:27:16;;;;;;;12.80;2.85;;;;;;;15.13;50.18;100004.06;5105698;28;20550;-67
2021/10/16 09:29:44;;;;;;;14.00;2.45;;;;;;;15.08;49.12;99998.16;5087270;28;20258;-67
2021/10/16 09:32:22;;;;;;;21.27;3.38;;;;;;;14.76;49.60;100016.56;5105036;28;20024;-68
2021/10/16 09:34:49;;;;;;;7.28;2.38;;;;;;;14.57;50.42;100011.94;5104944;28;20024;-68
2021/10/16 09:37:16;;;;;;;11.48;3.15;;;;;;;14.31;50.67;100020.59;5105360;28;20251;-68
2021/10/16 09:39:53;;;;;;;11.45;2.88;;;;;;;14.18;50.85;100027.91;5105202;28;20490;-68
2021/10/16 09:42:45;;;;;;;15.23;3.25;;;;;;;14.06;50.83;100031.72;5105257;28;20069;-66
2021/10/16 09:45:14;;;;;;;9.27;2.47;;;;;;;14.28;50.53;100028.50;5105138;28;20028;-67
2021/10/16 09:47:53;;;;;;;14.57;2.75;;;;;;;14.24;49.75;100022.50;5104952;28;20051;-67
2021/10/16 09:50:18;;;;;;;8.65;1.73;;;;;;;14.04;48.81;100029.16;5104845;28;20016;-67
2021/10/16 09:52:45;;;;;;;15.48;3.00;;;;;;;13.84;49.26;100035.81;5104948;28;20031;-67
2021/10/16 09:55:12;;;;;;;13.48;2.78;;;;;;;13.69;50.16;100036.25;5104875;28;20045;-69
2021/10/16 09:57:40;;;;;;;15.05;3.10;;;;;;;13.60;50.58;100022.56;5086575;28;20039;-68
2021/10/16 10:00:06;;;;;;;16.30;2.90;;;;;;;13.53;51.39;100033.22;5104831;28;20032;-68
2021/10/16 10:02:32;;;;;;;15.80;2.50;;;;;;;13.47;52.36;100039.38;5086409;28;20024;-67
2021/10/16 10:04:58;;;;;;;11.52;2.30;;;;;;;13.33;52.95;100038.03;5104664;28;20040;-68
2021/10/16 10:07:25;;;;;;;7.55;1.83;;;;;;;13.31;53.07;100044.16;5086376;28;20027;-67
2021/10/16 10:09:52;;;;;;;23.55;3.85;;;;;;;13.30;52.77;100032.88;5104252;28;20047;-67
2021/10/16 10:12:18;;;;;;;12.27;2.97;;;;;;;13.27;52.67;100025.16;5104498;28;20020;-66
2021/10/16 10:14:46;;;;;;;12.77;2.60;;;;;;;13.31;52.14;100031.13;5104453;28;20463;-67
2021/10/16 10:17:16;;;;;;;12.85;2.75;;;;;;;13.20;52.49;100034.00;5104528;28;20241;-67
2021/10/16 10:19:46;;;;;;;8.00;1.83;;;;;;;13.41;52.24;100040.44;5104478;28;20081;-69
2021/10/16 10:22:14;;;;;;;15.82;2.45;;;;;;;13.16;52.66;100043.66;5104631;28;20097;-69
2021/10/16 10:24:44;;;;;;;8.25;2.63;;;;;;;13.24;53.03;100033.88;5104071;28;20062;-67
2021/10/16 10:27:11;;;;;;;11.80;1.70;;;;;;;13.19;52.26;100008.84;5104134;28;20047;-69
2021/10/16 10:29:42;;;;;;;16.40;2.97;;;;;;;13.27;52.19;100046.84;5104143;28;20028;-67
2021/10/16 10:32:28;;;;;;;6.28;1.85;;;;;;;13.20;52.36;100041.81;5104420;28;20347;-68
2021/10/16 10:34:59;;;;;;;12.10;2.97;;;;;;;12.99;53.17;100038.84;5104070;28;20026;-67
2021/10/16 10:37:37;;;;;;;11.10;3.42;;;;;;;12.86;53.36;100033.94;5104193;28;20092;-68
2021/10/16 10:40:20;;;;;;;11.10;2.33;;;;;;;12.70;54.49;100045.63;5103834;28;20020;-69
2021/10/16 10:42:51;;;;;;;17.30;3.42;;;;;;;12.60;55.40;100063.22;5104039;28;20020;-68
2021/10/16 10:45:21;;;;;;;11.70;2.85;;;;;;;12.56;55.95;100058.94;5104124;28;20028;-69
2021/10/16 10:48:05;;;;;;;19.42;3.25;;;;;;;12.60;55.92;100071.03;5103304;28;20020;-68
2021/10/16 10:50:51;;;;;;;17.05;3.45;;;;;;;12.54;55.97;100068.56;5103750;28;20036;-69
2021/10/16 10:53:35;;;;;;;17.13;2.88;;;;;;;12.52;56.62;100048.59;5104398;28;20055;-70
2021/10/16 10:56:09;;;;;;;15.70;3.08;;;;;;;12.52;56.91;100061.63;5085922;28;20039;-68
2021/10/16 10:58:51;;;;;;;20.50;2.85;;;;;;;12.80;57.03;100056.66;5104100;28;20238;-68
2021/10/16 11:01:41;;;;;;;10.27;2.70;;;;;;;13.01;57.09;100040.53;5103785;28;20012;-68
2021/10/16 11:04:07;;;;;;;14.10;2.58;;;;;;;13.35;56.33;100036.25;5103566;28;20023;-67
2021/10/16 11:06:32;;;;;;;9.45;2.65;;;;;;;13.63;55.39;100050.31;5103450;28;20020;-68
2021/10/16 11:09:17;;;;;;;13.02;2.63;;;;;;;13.72;55.12;100037.00;5103466;28;20031;-68
2021/10/16 11:11:50;;;;;;;9.82;2.10;;;;;;;13.51;55.45;100038.47;5104059;28;20024;-68
2021/10/16 11:14:16;;;;;;;16.10;2.72;;;;;;;13.46;55.22;100046.38;5103779;28;20030;-68
2021/10/16 11:16:58;;;;;;;13.43;2.92;;;;;;;13.42;54.71;100028.25;5103679;28;20102;-67
2021/10/16 11:19:24;;;;;;;10.88;2.17;;;;;;;13.52;53.54;100042.78;5103564;28;20506;-68
2021/10/16 11:21:54;;;;;;;11.10;2.10;;;;;;;13.42;53.39;100028.25;5103509;28;20047;-68
2021/10/16 11:24:20;;;;;;;6.97;1.70;;;;;;;13.43;53.12;100045.59;5103365;28;20027;-67
2021/10/16 11:26:56;;;;;;;16.00;2.17;;;;;;;13.17;53.46;100044.50;5103644;28;20023;-67